Time;durP1;ratioP1;P1;durP2;ratioP2;P2;SDS_P1;SDS_P2;PMS_P1;PMS_P2;Temp;Humidity;BMP_temperature;BMP_pressure;BME280_temperature;BME280_humidity;BME280_pressure;Samples;Min_cycle;Max_cycle;Signal;HPM_P1;HPM_P2
2023/01/10 00:02:03;;;;;;;;;;;;;;;9.16;85.11;94358.75;5137255;27;1018;-51
2023/01/10 00:04:29;;;;;;;;;;;;;;;9.12;85.57;94349.41;5155394;27;1913;-51
2023/01/10 00:06:55;;;;;;;;;;;;;;;9.05;85.60;94348.47;5155478;27;1031;-52
2023/01/10 00:09:21;;;;;;;;;;;;;;;9.03;85.08;94350.47;5155392;27;1046;-51
2023/01/10 00:14:35;;;;;;;;;;;;;;;8.88;87.36;94346.81;5155119;27;1055;-52
2023/01/10 00:17:01;;;;;;;;;;;;;;;8.83;87.90;94354.50;5155292;27;1051;-51
2023/01/10 00:19:27;;;;;;;;;;;;;;;8.81;86.99;94367.19;5154330;27;1023;-51
2023/01/10 00:21:56;;;;;;;;;;;;;;;8.83;87.75;94371.31;5155084;27;1032;-52
2023/01/10 00:24:22;;;;;;;;;;;;;;;8.86;87.51;94362.16;5154046;27;1917;-51
2023/01/10 00:26:53;;;;;;;;;;;;;;;8.83;87.46;94366.00;5154977;27;1078;-52
2023/01/10 00:29:24;;;;;;;;;;;;;;;8.85;87.70;94369.31;5155349;27;1005;-52
2023/01/10 00:31:50;;;;;;;;;;;;;;;8.89;87.25;94359.16;5155160;27;1006;-52
2023/01/10 00:34:16;;;;;;;;;;;;;;;8.89;86.71;94354.63;5154982;27;1023;-51
2023/01/10 00:36:44;;;;;;;;;;;;;;;8.89;86.61;94351.16;5154893;27;1110;-52
2023/01/10 00:39:10;;;;;;;;;;;;;;;8.92;86.37;94345.50;5155030;27;969;-51
2023/01/10 00:44:21;;;;;;;;;;;;;;;8.92;86.14;94329.50;5155058;27;1913;-51
2023/01/10 00:46:47;;;;;;;;;;;;;;;8.94;86.47;94341.63;5154847;27;995;-52
2023/01/10 00:49:15;;;;;;;;;;;;;;;8.91;86.75;94327.81;5154862;27;1194;-52
2023/01/10 00:51:41;;;;;;;;;;;;;;;8.89;87.02;94332.50;5154760;27;1046;-51
2023/01/10 00:54:08;;;;;;;;;;;;;;;8.87;86.69;94331.84;5154764;27;969;-51
2023/01/10 00:56:34;;;;;;;;;;;;;;;8.90;86.71;94318.19;5154962;27;1077;-52
2023/01/10 00:59:00;;;;;;;;;;;;;;;8.93;86.53;94320.47;5154736;27;1094;-52
2023/01/10 01:01:26;;;;;;;;;;;;;;;8.97;86.27;94316.47;5154819;27;974;-51
2023/01/10 01:03:52;;;;;;;;;;;;;;;9.05;85.55;94311.13;5154653;27;1905;-51
2023/01/10 01:06:19;;;;;;;;;;;;;;;9.11;85.20;94330.94;5154743;27;947;-51
2023/01/10 01:08:45;;;;;;;;;;;;;;;9.12;84.96;94325.41;5154597;27;988;-51
2023/01/10 01:11:11;;;;;;;;;;;;;;;9.14;84.95;94314.56;5154626;27;1256;-51
2023/01/10 01:13:37;;;;;;;;;;;;;;;9.14;85.09;94323.44;5154657;27;955;-52
2023/01/10 01:16:03;;;;;;;;;;;;;;;9.11;85.18;94334.44;5154704;27;982;-51
2023/01/10 01:18:29;;;;;;;;;;;;;;;9.11;85.17;94331.75;5154467;27;1062;-51
2023/01/10 01:20:56;;;;;;;;;;;;;;;9.16;84.36;94304.56;5154609;27;994;-51
2023/01/10 01:23:23;;;;;;;;;;;;;;;9.29;83.77;94314.69;5153347;27;1154;-51
2023/01/10 01:25:50;;;;;;;;;;;;;;;9.31;83.63;94316.16;5154345;27;1906;-51
2023/01/10 01:28:16;;;;;;;;;;;;;;;9.24;84.27;94295.69;5154507;27;1145;-50
2023/01/10 01:30:42;;;;;;;;;;;;;;;9.19;85.32;94267.72;5157502;27;1032;-52
2023/01/10 01:33:08;;;;;;;;;;;;;;;9.07;87.48;94270.94;5158157;27;1023;-52
2023/01/10 01:35:35;;;;;;;;;;;;;;;8.96;88.07;94266.84;5139705;27;1050;-51
2023/01/10 01:38:01;;;;;;;;;;;;;;;8.87;89.58;94254.53;5158103;27;1079;-51
2023/01/10 01:40:27;;;;;;;;;;;;;;;8.79;90.23;94252.72;5157992;27;1078;-52
2023/01/10 01:42:54;;;;;;;;;;;;;;;8.75;90.80;94256.75;5157839;27;1098;-52
2023/01/10 01:45:30;;;;;;;;;;;;;;;8.68;91.71;94256.59;5157854;27;1981;-51
2023/01/10 01:48:12;;;;;;;;;;;;;;;8.68;91.28;94261.91;5158002;27;1090;-51
2023/01/10 01:50:54;;;;;;;;;;;;;;;8.64;91.82;94233.94;5157757;27;1019;-51
2023/01/10 01:53:23;;;;;;;;;;;;;;;8.59;91.71;94220.31;5158029;27;1035;-51
2023/01/10 01:55:50;;;;;;;;;;;;;;;8.65;91.73;94208.97;5157671;27;1028;-51
2023/01/10 01:58:19;;;;;;;;;;;;;;;8.65;92.15;94208.97;5157818;27;998;-51
2023/01/10 02:00:45;;;;;;;;;;;;;;;8.67;92.19;94201.66;5157690;27;1041;-52
2023/01/10 02:03:12;;;;;;;;;;;;;;;8.76;91.71;94199.75;5157488;27;1042;-51
2023/01/10 02:05:39;;;;;;;;;;;;;;;8.83;91.42;94199.91;5139042;27;1910;-51
2023/01/10 02:08:05;;;;;;;;;;;;;;;8.81;91.93;94205.41;5157584;27;1090;-52
2023/01/10 02:10:40;;;;;;;;;;;;;;;8.92;90.97;94212.19;5157524;27;1032;-51
2023/01/10 02:13:08;;;;;;;;;;;;;;;8.96;90.49;94211.66;5157512;27;1025;-52
2023/01/10 02:15:34;;;;;;;;;;;;;;;9.05;90.02;94209.81;5157303;27;999;-52
2023/01/10 02:18:01;;;;;;;;;;;;;;;9.05;90.36;94209.81;5157656;27;1035;-51
2023/01/10 02:20:29;;;;;;;;;;;;;;;9.11;89.40;94218.94;5157439;27;1021;-51
2023/01/10 02:23:01;;;;;;;;;;;;;;;9.17;88.88;94215.56;5157431;27;978;-51
2023/01/10 02:25:46;;;;;;;;;;;;;;;9.18;89.24;94231.41;5156112;27;1992;-52
2023/01/10 02:28:31;;;;;;;;;;;;;;;8.88;91.74;94219.72;5156973;27;1038;-52
2023/01/10 02:31:03;;;;;;;;;;;;;;;8.51;94.13;94213.16;5157281;27;972;-51
2023/01/10 02:33:33;;;;;;;;;;;;;;;8.37;95.88;94224.53;5157142;27;956;-52
2023/01/10 02:36:17;;;;;;;;;;;;;;;8.35;95.72;94218.53;5157063;27;1039;-52
2023/01/10 02:38:46;;;;;;;;;;;;;;;8.29;96.38;94213.88;5156807;27;966;-51
2023/01/10 02:41:14;;;;;;;;;;;;;;;8.27;97.60;94214.06;5156326;27;1041;-52
2023/01/10 02:43:44;;;;;;;;;;;;;;;8.26;97.35;94215.03;5156639;27;1075;-51
2023/01/10 02:46:15;;;;;;;;;;;;;;;8.37;95.72;94220.00;5156738;27;1996;-51
2023/01/10 02:48:41;;;;;;;;;;;;;;;8.53;94.70;94216.50;5156717;27;1027;-51
2023/01/10 02:51:17;;;;;;;;;;;;;;;8.78;93.44;94230.59;5156636;27;1023;-51
2023/01/10 02:53:46;;;;;;;;;;;;;;;8.96;92.00;94226.84;5156782;27;1014;-51
2023/01/10 02:56:15;;;;;;;;;;;;;;;9.03;91.47;94230.47;5156769;27;958;-51
2023/01/10 02:58:53;;;;;;;;;;;;;;;9.06;92.47;94226.63;5156548;27;1046;-51
2023/01/10 03:01:38;;;;;;;;;;;;;;;8.94;93.45;94243.00;5156473;27;1111;-51
2023/01/10 03:04:15;;;;;;;;;;;;;;;8.90;93.89;94241.69;5156610;27;1988;-51
2023/01/10 03:07:13;;;;;;;;;;;;;;;8.91;93.90;94240.66;5156522;27;1046;-51
2023/01/10 03:10:04;;;;;;;;;;;;;;;8.95;93.71;94250.00;5099536;27;1245;-52
2023/01/10 03:12:34;;;;;;;;;;;;;;;8.96;93.47;94234.84;5156428;27;1014;-51
2023/01/10 03:15:03;;;;;;;;;;;;;;;8.93;94.61;94237.84;5156277;27;1074;-52
2023/01/10 03:17:29;;;;;;;;;;;;;;;8.95;94.17;94241.16;5156010;27;1036;-51
2023/01/10 03:19:59;;;;;;;;;;;;;;;9.02;93.81;94225.31;5156232;27;1024;-51
2023/01/10 03:22:28;;;;;;;;;;;;;;;9.03;93.27;94221.63;5156067;27;986;-52
2023/01/10 03:24:55;;;;;;;;;;;;;;;8.97;93.68;94217.81;5154863;27;1905;-52
2023/01/10 03:27:26;;;;;;;;;;;;;;;9.00;93.90;94220.16;5156204;27;963;-51
2023/01/10 03:30:10;;;;;;;;;;;;;;;9.01;93.13;94205.81;5155967;27;1023;-51
2023/01/10 03:32:37;;;;;;;;;;;;;;;9.04;92.57;94178.81;5155867;27;1019;-51
2023/01/10 03:35:04;;;;;;;;;;;;;;;9.02;93.27;94156.81;5155783;27;1003;-51
2023/01/10 03:37:35;;;;;;;;;;;;;;;8.99;93.43;94127.84;5155637;27;1122;-52
2023/01/10 03:40:07;;;;;;;;;;;;;;;9.02;92.75;94098.16;5156161;27;1055;-51
2023/01/10 03:45:27;;;;;;;;;;;;;;;9.01;93.37;94080.53;5155588;27;1894;-52
2023/01/10 03:47:55;;;;;;;;;;;;;;;9.04;93.44;94106.00;5155903;27;1146;-52
2023/01/10 03:50:22;;;;;;;;;;;;;;;9.10;92.96;94138.09;5155802;27;1036;-52
2023/01/10 03:52:49;;;;;;;;;;;;;;;9.13;92.64;94164.41;5155589;27;956;-52
2023/01/10 03:55:19;;;;;;;;;;;;;;;9.15;92.56;94165.06;5155647;27;1027;-52
2023/01/10 03:57:46;;;;;;;;;;;;;;;9.17;92.55;94168.38;5155433;27;1015;-51
2023/01/10 04:00:12;;;;;;;;;;;;;;;9.13;92.88;94151.09;5155376;27;1867;-52
2023/01/10 04:02:38;;;;;;;;;;;;;;;9.07;92.88;94148.28;5155492;27;1017;-51
2023/01/10 04:05:05;;;;;;;;;;;;;;;9.12;92.37;94140.59;5155463;27;1905;-51
2023/01/10 04:07:31;;;;;;;;;;;;;;;9.13;90.75;94143.09;5155378;27;977;-52
2023/01/10 04:09:57;;;;;;;;;;;;;;;9.25;90.30;94164.00;5136909;27;1039;-52
2023/01/10 04:12:23;;;;;;;;;;;;;;;9.27;90.03;94175.31;5155297;27;1952;-52
2023/01/10 04:14:49;;;;;;;;;;;;;;;9.34;89.89;94162.94;5155084;27;1019;-52
2023/01/10 04:17:16;;;;;;;;;;;;;;;9.32;89.85;94163.13;5155449;27;969;-52
2023/01/10 04:19:42;;;;;;;;;;;;;;;9.30;89.85;94165.13;5155068;27;1073;-52
2023/01/10 04:22:08;;;;;;;;;;;;;;;9.29;90.94;94162.66;5155064;27;1078;-52
2023/01/10 04:24:34;;;;;;;;;;;;;;;9.28;90.97;94153.00;5153851;27;1913;-52
2023/01/10 04:27:00;;;;;;;;;;;;;;;9.18;91.39;94138.06;5155140;27;1016;-52
2023/01/10 04:29:27;;;;;;;;;;;;;;;9.17;91.45;94127.56;5154952;27;1054;-52
2023/01/10 04:31:53;;;;;;;;;;;;;;;9.11;90.37;94123.75;5155032;27;1015;-52
2023/01/10 04:34:20;;;;;;;;;;;;;;;9.18;90.34;94130.06;5155125;27;966;-52
2023/01/10 04:36:47;;;;;;;;;;;;;;;9.21;90.64;94141.38;5155036;27;1014;-52
2023/01/10 04:39:13;;;;;;;;;;;;;;;9.24;90.62;94141.00;5155095;27;1011;-52
2023/01/10 04:41:39;;;;;;;;;;;;;;;9.34;90.01;94146.94;5154847;27;964;-52
2023/01/10 04:44:05;;;;;;;;;;;;;;;9.39;89.98;94147.25;5154635;27;1905;-52
2023/01/10 04:46:31;;;;;;;;;;;;;;;9.33;90.40;94142.59;5154988;27;1012;-52
2023/01/10 04:48:58;;;;;;;;;;;;;;;9.29;90.93;94147.47;5154831;27;1051;-52
2023/01/10 04:51:24;;;;;;;;;;;;;;;9.11;91.61;94144.28;5154862;27;990;-52
2023/01/10 04:53:50;;;;;;;;;;;;;;;8.97;92.82;94144.03;5154971;27;999;-52
2023/01/10 04:56:18;;;;;;;;;;;;;;;9.00;92.90;94137.50;5154877;27;963;-52
2023/01/10 04:58:44;;;;;;;;;;;;;;;9.02;92.71;94140.00;5154670;27;1035;-52
2023/01/10 05:01:19;;;;;;;;;;;;;;;8.97;93.41;94129.84;5155008;27;998;-52
2023/01/10 05:03:47;;;;;;;;;;;;;;;8.88;93.70;94133.56;5154888;27;1059;-52
2023/01/10 05:06:13;;;;;;;;;;;;;;;8.69;95.31;94124.16;5158625;27;1889;-50
2023/01/10 05:08:39;;;;;;;;;;;;;;;8.45;97.63;94125.13;5158658;27;1051;-52
2023/01/10 05:11:05;;;;;;;;;;;;;;;8.47;97.96;94129.28;5158528;27;1083;-52
2023/01/10 05:13:31;;;;;;;;;;;;;;;8.59;96.44;94132.38;5158718;27;1028;-52
2023/01/10 05:15:57;;;;;;;;;;;;;;;8.69;95.44;94142.81;5158817;27;943;-52
2023/01/10 05:18:24;;;;;;;;;;;;;;;8.69;95.48;94146.34;5158436;27;1230;-52
2023/01/10 05:20:50;;;;;;;;;;;;;;;8.72;95.40;94147.81;5158507;27;1102;-51
2023/01/10 05:23:16;;;;;;;;;;;;;;;8.72;95.22;94145.16;5157460;27;1170;-51
2023/01/10 05:25:42;;;;;;;;;;;;;;;8.69;95.54;94145.50;5158184;27;1901;-52
2023/01/10 05:28:08;;;;;;;;;;;;;;;8.63;96.09;94148.84;5158339;27;1086;-52
2023/01/10 05:30:34;;;;;;;;;;;;;;;8.62;95.78;94149.88;5139991;27;1047;-52
2023/01/10 05:33:03;;;;;;;;;;;;;;;8.67;95.48;94147.50;5158344;27;1047;-52
2023/01/10 05:35:29;;;;;;;;;;;;;;;8.64;95.66;94146.03;5158093;27;1071;-52
2023/01/10 05:37:55;;;;;;;;;;;;;;;8.66;95.58;94151.19;5158209;27;1007;-52
2023/01/10 05:40:21;;;;;;;;;;;;;;;8.51;96.83;94146.56;5158016;27;1035;-52
2023/01/10 05:42:47;;;;;;;;;;;;;;;8.44;97.34;94147.44;5157823;27;1130;-52
2023/01/10 05:45:13;;;;;;;;;;;;;;;8.42;97.65;94154.78;5157957;27;1920;-52
2023/01/10 05:47:39;;;;;;;;;;;;;;;8.42;97.71;94146.78;5158035;27;1047;-52
2023/01/10 05:50:05;;;;;;;;;;;;;;;8.36;98.33;94141.09;5158096;27;1035;-52
2023/01/10 05:52:31;;;;;;;;;;;;;;;8.36;97.98;94150.94;5157910;27;990;-51
2023/01/10 05:54:57;;;;;;;;;;;;;;;8.36;98.46;94135.78;5157784;27;916;-52
2023/01/10 05:57:23;;;;;;;;;;;;;;;8.40;98.07;94137.13;5157675;27;1023;-52
2023/01/10 05:59:50;;;;;;;;;;;;;;;8.40;98.10;94134.44;5157650;27;1038;-52
2023/01/10 06:02:16;;;;;;;;;;;;;;;8.39;98.19;94135.44;5157358;27;1023;-52
2023/01/10 06:04:42;;;;;;;;;;;;;;;8.45;98.64;94141.13;5157579;27;1992;-52
2023/01/10 06:07:08;;;;;;;;;;;;;;;8.49;97.82;94137.09;5139199;27;1034;-52
2023/01/10 06:09:34;;;;;;;;;;;;;;;8.48;98.95;94132.75;5157484;27;1034;-52
2023/01/10 06:12:01;;;;;;;;;;;;;;;8.50;100.00;94125.44;5157721;27;1003;-51
2023/01/10 06:14:27;;;;;;;;;;;;;;;8.49;100.00;94121.13;5157605;27;972;-52
2023/01/10 06:16:53;;;;;;;;;;;;;;;8.45;100.00;94123.28;5156168;27;1101;-51
2023/01/10 06:19:19;;;;;;;;;;;;;;;8.47;100.00;94117.81;5157244;27;1031;-51
2023/01/10 06:21:45;;;;;;;;;;;;;;;8.48;100.00;94116.78;5157412;27;998;-51
2023/01/10 06:24:11;;;;;;;;;;;;;;;8.50;100.00;94120.09;5156081;27;1909;-52
2023/01/10 06:26:37;;;;;;;;;;;;;;;8.54;100.00;94126.75;5157099;27;952;-52
2023/01/10 06:29:03;;;;;;;;;;;;;;;8.51;100.00;94121.78;5138832;27;1055;-51
2023/01/10 06:31:29;;;;;;;;;;;;;;;8.47;100.00;94125.78;5156931;27;1035;-52
2023/01/10 06:33:55;;;;;;;;;;;;;;;8.48;100.00;94122.97;5157014;27;1035;-52
2023/01/10 06:36:21;;;;;;;;;;;;;;;8.47;100.00;94115.97;5157024;27;973;-52
2023/01/10 06:38:47;;;;;;;;;;;;;;;8.51;100.00;94135.09;5156951;27;1106;-52
2023/01/10 06:41:13;;;;;;;;;;;;;;;8.54;100.00;94124.09;5156864;27;1039;-51
2023/01/10 06:43:46;;;;;;;;;;;;;;;8.60;100.00;94126.88;5156655;27;1090;-52
2023/01/10 06:46:15;;;;;;;;;;;;;;;8.60;100.00;94132.22;5156776;27;1905;-52
2023/01/10 06:48:44;;;;;;;;;;;;;;;8.75;100.00;94140.31;5156822;27;1023;-52
2023/01/10 06:51:11;;;;;;;;;;;;;;;8.82;99.64;94140.44;5156803;27;1056;-52
2023/01/10 06:53:37;;;;;;;;;;;;;;;8.79;99.41;94144.28;5156545;27;1063;-52
2023/01/10 06:56:04;;;;;;;;;;;;;;;8.77;99.29;94134.81;5156647;27;1095;-52
2023/01/10 06:58:31;;;;;;;;;;;;;;;8.78;98.55;94144.44;5156578;27;1834;-52
2023/01/10 07:00:57;;;;;;;;;;;;;;;8.68;99.46;94150.00;5156459;27;1082;-52
2023/01/10 07:03:23;;;;;;;;;;;;;;;8.68;99.48;94141.19;5156462;27;1087;-52
2023/01/10 07:05:49;;;;;;;;;;;;;;;8.60;99.64;94129.53;5156445;27;1986;-51
2023/01/10 07:08:15;;;;;;;;;;;;;;;8.56;100.00;94124.75;5156430;27;1035;-51
2023/01/10 07:10:42;;;;;;;;;;;;;;;8.53;100.00;94128.56;5156540;27;1038;-51
2023/01/10 07:13:08;;;;;;;;;;;;;;;8.47;100.00;94121.28;5138278;27;1011;-51
2023/01/10 07:15:35;;;;;;;;;;;;;;;8.43;100.00;94127.97;5156373;27;1067;-51
2023/01/10 07:18:01;;;;;;;;;;;;;;;8.40;100.00;94121.13;5156275;27;1027;-52
2023/01/10 07:20:27;;;;;;;;;;;;;;;8.40;100.00;94118.47;5156222;27;1046;-52
2023/01/10 07:22:57;;;;;;;;;;;;;;;8.46;100.00;94118.78;5156129;27;1039;-52
2023/01/10 07:25:24;;;;;;;;;;;;;;;8.53;100.00;94109.94;5155107;27;1909;-51
2023/01/10 07:27:50;;;;;;;;;;;;;;;8.65;100.00;94113.06;5155825;27;1079;-52
2023/01/10 07:30:16;;;;;;;;;;;;;;;8.77;100.00;94119.63;5156198;27;1070;-52
2023/01/10 07:32:42;;;;;;;;;;;;;;;8.78;100.00;94120.47;5155959;27;1055;-52
2023/01/10 07:35:09;;;;;;;;;;;;;;;8.70;100.00;94121.34;5137742;27;1018;-52
2023/01/10 07:37:35;;;;;;;;;;;;;;;8.66;100.00;94124.53;5155784;27;1050;-52
2023/01/10 07:40:01;;;;;;;;;;;;;;;8.73;100.00;94115.66;5156266;27;956;-52
2023/01/10 07:46:26;;;;;;;;;;;;;;;8.77;100.00;94124.16;5135095;27;819;-52
2023/01/10 07:48:52;;;;;;;;;;;;;;;8.79;100.00;94114.13;5116675;27;1083;-52
2023/01/10 07:51:18;;;;;;;;;;;;;;;8.86;100.00;94119.59;5135053;27;1035;-52
2023/01/10 07:53:44;;;;;;;;;;;;;;;8.81;100.00;94116.63;5134992;27;1003;-52
2023/01/10 07:56:10;;;;;;;;;;;;;;;8.67;100.00;94116.38;5134811;27;1089;-52
2023/01/10 07:58:36;;;;;;;;;;;;;;;8.60;100.00;94124.22;5134654;27;1724;-52
2023/01/10 08:01:03;;;;;;;;;;;;;;;8.71;100.00;94119.53;5135006;27;1080;-52
2023/01/10 08:03:31;;;;;;;;;;;;;;;8.74;100.00;94113.81;5134842;27;1066;-52
2023/01/10 08:05:58;;;;;;;;;;;;;;;8.77;100.00;94116.97;5134872;27;1985;-52
2023/01/10 08:08:25;;;;;;;;;;;;;;;8.87;100.00;94115.94;5134516;27;1193;-52
2023/01/10 08:10:51;;;;;;;;;;;;;;;8.91;100.00;94114.56;5116431;27;1071;-52
2023/01/10 08:13:17;;;;;;;;;;;;;;;8.90;100.00;94107.59;5116659;28;993;-52
2023/01/10 08:15:44;;;;;;;;;;;;;;;8.87;100.00;94108.75;5116321;27;1039;-51
2023/01/10 08:18:10;;;;;;;;;;;;;;;8.88;100.00;94113.09;5134730;27;1044;-52
2023/01/10 08:20:36;;;;;;;;;;;;;;;8.86;100.00;94115.09;5134492;27;1069;-52
2023/01/10 08:23:02;;;;;;;;;;;;;;;8.91;100.00;94117.22;5134476;27;1514;-52
2023/01/10 08:25:28;;;;;;;;;;;;;;;8.90;100.00;94115.59;5133196;27;1997;-52
2023/01/10 08:27:54;;;;;;;;;;;;;;;8.89;100.00;94109.41;5134445;28;1014;-52
2023/01/10 08:30:20;;;;;;;;;;;;;;;8.90;99.93;94112.91;5134595;28;1029;-52
2023/01/10 08:32:46;;;;;;;;;;;;;;;8.89;100.00;94105.91;5134577;28;1048;-52
2023/01/10 08:35:12;;;;;;;;;;;;;;;8.89;99.81;94108.56;5116277;28;1000;-52
2023/01/10 08:37:39;;;;;;;;;;;;;;;8.86;100.00;94108.91;5134409;28;968;-52
2023/01/10 08:40:05;;;;;;;;;;;;;;;8.88;100.00;94106.91;5136670;27;956;-52
2023/01/10 08:42:31;;;;;;;;;;;;;;;8.98;100.00;94107.53;5138990;27;1042;-52
2023/01/10 08:44:59;;;;;;;;;;;;;;;8.99;100.00;94099.34;5146981;27;1991;-52
2023/01/10 08:47:25;;;;;;;;;;;;;;;9.07;99.62;94105.63;5159144;27;1050;-52
2023/01/10 08:49:51;;;;;;;;;;;;;;;9.02;99.93;94100.81;5159383;27;969;-52
2023/01/10 08:52:17;;;;;;;;;;;;;;;9.03;100.00;94107.84;5159284;27;1220;-52
2023/01/10 08:54:43;;;;;;;;;;;;;;;9.05;99.50;94103.16;5159200;27;1028;-52
2023/01/10 08:57:09;;;;;;;;;;;;;;;9.01;99.81;94101.84;5158973;27;1114;-52
2023/01/10 08:59:35;;;;;;;;;;;;;;;9.04;99.37;94098.81;5159165;27;1136;-52
2023/01/10 09:02:03;;;;;;;;;;;;;;;9.03;99.48;94097.16;5158982;27;1181;-51
2023/01/10 09:04:30;;;;;;;;;;;;;;;9.06;99.71;94094.13;5158776;27;1902;-52
2023/01/10 09:06:56;;;;;;;;;;;;;;;9.01;100.00;94093.84;5158998;27;972;-52
2023/01/10 09:09:22;;;;;;;;;;;;;;;8.99;100.00;94093.16;5158775;27;1043;-51
2023/01/10 09:11:48;;;;;;;;;;;;;;;9.01;100.00;94085.84;5158721;27;1089;-52
2023/01/10 09:14:14;;;;;;;;;;;;;;;9.03;100.00;94078.50;5158951;27;1031;-52
2023/01/10 09:16:40;;;;;;;;;;;;;;;9.09;100.00;94079.63;5158831;27;1232;-52
2023/01/10 09:19:06;;;;;;;;;;;;;;;9.22;99.58;94082.53;5158779;27;1014;-52
2023/01/10 09:21:32;;;;;;;;;;;;;;;9.34;98.05;94089.09;5158673;27;987;-52
2023/01/10 09:23:58;;;;;;;;;;;;;;;9.42;97.49;94085.50;5157434;27;1269;-51
2023/01/10 09:26:24;;;;;;;;;;;;;;;9.46;97.37;94089.47;5158280;27;1909;-51
2023/01/10 09:28:51;;;;;;;;;;;;;;;9.29;98.47;94095.97;5158691;27;971;-52
2023/01/10 09:31:17;;;;;;;;;;;;;;;9.14;99.43;94086.09;5158574;27;1014;-51
2023/01/10 09:33:43;;;;;;;;;;;;;;;9.16;100.00;94083.22;5158513;27;1337;-50
2023/01/10 09:36:10;;;;;;;;;;;;;;;9.23;99.39;94083.34;5158437;27;994;-52
2023/01/10 09:38:36;;;;;;;;;;;;;;;9.19;98.78;94073.03;5158256;27;986;-51
2023/01/10 09:41:20;;;;;;;;;;;;;;;9.19;98.69;94078.38;5158170;27;968;-52
2023/01/10 09:44:13;;;;;;;;;;;;;;;9.18;98.95;94073.19;5158350;27;1035;-51
2023/01/10 09:46:51;;;;;;;;;;;;;;;9.15;99.44;94062.91;5158202;27;972;-52
2023/01/10 09:49:23;;;;;;;;;;;;;;;9.18;98.94;94054.53;5139831;27;913;-52
2023/01/10 09:51:51;;;;;;;;;;;;;;;9.24;98.78;94069.00;5158071;27;1046;-52
2023/01/10 09:54:26;;;;;;;;;;;;;;;9.21;99.22;94072.03;5157990;27;1093;-51
2023/01/10 09:56:52;;;;;;;;;;;;;;;9.31;99.06;94065.41;5158127;27;1218;-52
2023/01/10 09:59:20;;;;;;;;;;;;;;;9.35;98.00;94066.75;5157873;27;1075;-52
2023/01/10 10:01:47;;;;;;;;;;;;;;;9.34;98.38;94061.59;5157811;27;1961;-52
2023/01/10 10:04:26;;;;;;;;;;;;;;;9.36;98.28;94057.72;5157707;27;1898;-52
2023/01/10 10:06:52;;;;;;;;;;;;;;;9.25;98.11;94060.00;5158090;27;964;-52
2023/01/10 10:09:28;;;;;;;;;;;;;;;9.06;99.22;94055.97;5157720;27;990;-52
2023/01/10 10:12:02;;;;;;;;;;;;;;;8.94;99.83;94058.25;5157683;27;1027;-52
2023/01/10 10:14:38;;;;;;;;;;;;;;;8.99;99.92;94061.19;5157536;27;991;-52
2023/01/10 10:17:19;;;;;;;;;;;;;;;9.05;99.97;94057.81;5157822;27;1039;-52
2023/01/10 10:19:45;;;;;;;;;;;;;;;9.03;100.00;94051.00;5157567;27;1117;-52
2023/01/10 10:22:18;;;;;;;;;;;;;;;8.96;99.16;94051.72;5157559;27;1057;-51
2023/01/10 10:24:47;;;;;;;;;;;;;;;8.95;97.57;94049.22;5137999;27;1901;-52
2023/01/10 10:27:27;;;;;;;;;;;;;;;8.95;97.12;94047.41;5157548;27;1016;-52
2023/01/10 10:29:53;;;;;;;;;;;;;;;9.03;97.95;94043.00;5157544;27;1111;-51
2023/01/10 10:32:22;;;;;;;;;;;;;;;9.00;97.72;94041.53;5157320;27;988;-52
2023/01/10 10:34:52;;;;;;;;;;;;;;;9.00;97.98;94041.53;5157228;27;1043;-52
2023/01/10 10:37:24;;;;;;;;;;;;;;;9.08;96.99;94044.13;5157145;27;1036;-52
2023/01/10 10:39:55;;;;;;;;;;;;;;;9.12;97.47;94060.59;5157119;27;1082;-52
2023/01/10 10:42:21;;;;;;;;;;;;;;;8.99;97.80;94062.03;5157199;27;1048;-51
2023/01/10 10:45:14;;;;;;;;;;;;;;;8.98;98.16;94056.88;5156850;27;1985;-51
2023/01/10 10:47:42;;;;;;;;;;;;;;;9.01;97.27;94056.53;5156978;27;1028;-51
2023/01/10 10:50:14;;;;;;;;;;;;;;;9.14;96.29;94056.75;5157156;27;960;-51
2023/01/10 10:52:41;;;;;;;;;;;;;;;9.18;95.61;94055.38;5156982;27;1042;-52
2023/01/10 10:55:15;;;;;;;;;;;;;;;9.19;96.11;94046.34;5156753;27;1016;-51
2023/01/10 10:57:44;;;;;;;;;;;;;;;9.15;96.47;94045.06;5156770;27;1067;-51
2023/01/10 11:00:14;;;;;;;;;;;;;;;9.07;96.34;94046.97;5156618;27;1110;-51
2023/01/10 11:02:52;;;;;;;;;;;;;;;9.04;96.50;94044.66;5137855;27;1031;-51
2023/01/10 11:05:25;;;;;;;;;;;;;;;9.04;96.85;94042.00;5156740;27;1985;-51
2023/01/10 11:07:53;;;;;;;;;;;;;;;8.96;97.39;94032.22;5156538;27;995;-51
2023/01/10 11:10:33;;;;;;;;;;;;;;;8.97;97.32;94037.38;5156479;27;1042;-51
2023/01/10 11:13:02;;;;;;;;;;;;;;;8.72;97.26;94028.72;5156423;27;1030;-51
2023/01/10 11:15:39;;;;;;;;;;;;;;;8.76;97.53;94024.72;5156512;27;1055;-51
2023/01/10 11:18:16;;;;;;;;;;;;;;;8.75;95.72;94030.22;5138134;27;995;-51
2023/01/10 11:21:00;;;;;;;;;;;;;;;8.94;94.69;94035.06;5156223;27;1278;-51
2023/01/10 11:23:31;;;;;;;;;;;;;;;8.71;91.29;94032.41;5154822;27;1162;-51
2023/01/10 11:25:57;;;;;;;;;;;;;;;8.77;92.90;94030.88;5156352;27;1972;-51
2023/01/10 11:28:27;;;;;;;;;;;;;;;8.71;90.82;94035.06;5156208;27;969;-51
2023/01/10 11:30:54;;;;;;;;;;;;;;;8.65;88.81;94037.59;5156263;27;1052;-50
2023/01/10 11:33:22;;;;;;;;;;;;;;;8.58;88.98;94032.97;5156000;27;972;-50
2023/01/10 11:35:59;;;;;;;;;;;;;;;8.45;88.44;94043.38;5155897;27;1115;-51
2023/01/10 11:38:28;;;;;;;;;;;;;;;8.22;89.85;94040.66;5156239;27;1051;-51
2023/01/10 11:40:57;;;;;;;;;;;;;;;8.29;89.95;94033.63;5156171;27;1021;-51
2023/01/10 11:43:23;;;;;;;;;;;;;;;8.34;89.69;94023.25;5155965;27;984;-51
2023/01/10 11:46:01;;;;;;;;;;;;;;;8.32;90.30;94027.94;5155680;27;1926;-52
2023/01/10 11:48:33;;;;;;;;;;;;;;;8.41;89.22;94026.06;5155637;27;1002;-52
2023/01/10 11:50:59;;;;;;;;;;;;;;;8.38;89.58;94032.59;5156009;27;1019;-51
2023/01/10 11:53:39;;;;;;;;;;;;;;;8.30;88.86;94021.97;5137499;27;1035;-51
2023/01/10 11:56:06;;;;;;;;;;;;;;;8.23;89.83;94022.84;5155797;27;1040;-51
2023/01/10 11:58:34;;;;;;;;;;;;;;;8.21;88.38;94020.34;5155505;27;1095;-51
2023/01/10 12:01:00;;;;;;;;;;;;;;;8.14;88.57;94024.72;5155476;27;1078;-51
2023/01/10 12:03:29;;;;;;;;;;;;;;;8.14;88.36;94022.88;5155463;27;1063;-50
2023/01/10 12:05:57;;;;;;;;;;;;;;;8.19;88.27;94027.66;5155546;27;1906;-50
2023/01/10 12:08:27;;;;;;;;;;;;;;;8.20;89.06;94035.50;5155515;27;995;-51
2023/01/10 12:10:58;;;;;;;;;;;;;;;8.18;88.69;94021.53;5155532;27;958;-51
2023/01/10 12:13:26;;;;;;;;;;;;;;;8.14;89.00;94019.41;5154822;27;1059;-51
2023/01/10 12:16:12;;;;;;;;;;;;;;;8.21;89.66;94012.34;5154971;27;1016;-51
2023/01/10 12:18:38;;;;;;;;;;;;;;;8.30;88.40;94024.63;5155442;27;1036;-52
2023/01/10 12:21:04;;;;;;;;;;;;;;;8.35;88.00;94032.94;5155401;27;965;-51
2023/01/10 12:23:33;;;;;;;;;;;;;;;8.33;88.08;94044.75;5154009;27;1518;-51
2023/01/10 12:25:59;;;;;;;;;;;;;;;8.43;88.62;94047.25;5155157;27;1906;-50
2023/01/10 12:28:27;;;;;;;;;;;;;;;8.37;88.98;94052.22;5155461;27;1015;-52
2023/01/10 12:30:55;;;;;;;;;;;;;;;8.54;87.90;94044.19;5155111;27;1125;-51
2023/01/10 12:33:25;;;;;;;;;;;;;;;8.57;87.83;94038.47;5155199;27;956;-51
2023/01/10 12:35:57;;;;;;;;;;;;;;;8.57;87.04;94031.34;5155345;27;976;-51
2023/01/10 12:44:13;;;;;;;;;;;;;;;8.44;89.90;94033.72;5155023;27;1114;-52
2023/01/10 12:46:48;;;;;;;;;;;;;;;8.53;88.97;94034.50;5155087;27;1019;-51
2023/01/10 12:49:17;;;;;;;;;;;;;;;8.45;88.50;94045.22;5155007;27;965;-51
2023/01/10 12:51:47;;;;;;;;;;;;;;;8.40;89.01;94043.03;5154932;27;1530;-51
2023/01/10 12:54:23;;;;;;;;;;;;;;;8.45;88.74;94042.56;5144786;27;1059;-51
2023/01/10 12:56:49;;;;;;;;;;;;;;;8.55;87.53;94046.66;5134346;28;1295;-51
2023/01/10 12:59:25;;;;;;;;;;;;;;;8.59;88.63;94060.44;5134125;28;1072;-50
2023/01/10 13:01:53;;;;;;;;;;;;;;;8.66;88.44;94066.75;5134415;28;1061;-51
2023/01/10 13:04:21;;;;;;;;;;;;;;;8.68;89.40;94063.91;5134183;28;1918;-51
2023/01/10 13:06:47;;;;;;;;;;;;;;;8.67;88.87;94067.56;5134337;28;961;-51
2023/01/10 13:09:18;;;;;;;;;;;;;;;8.55;88.57;94054.63;5134111;28;1859;-52
2023/01/10 13:12:05;;;;;;;;;;;;;;;8.52;89.31;94062.19;5134096;28;1030;-51
2023/01/10 13:14:35;;;;;;;;;;;;;;;8.51;89.25;94079.97;5133912;28;1260;-52
2023/01/10 13:17:15;;;;;;;;;;;;;;;8.60;88.15;94083.44;5134182;28;1032;-51
2023/01/10 13:19:41;;;;;;;;;;;;;;;8.64;87.76;94087.41;5133982;28;1945;-52
2023/01/10 13:22:19;;;;;;;;;;;;;;;8.68;86.92;94090.56;5115742;28;1091;-51
2023/01/10 13:24:55;;;;;;;;;;;;;;;8.53;88.72;94099.28;5146107;27;1992;-51
2023/01/10 13:27:22;;;;;;;;;;;;;;;8.54;89.58;94102.78;5158421;27;1089;-51
2023/01/10 13:29:48;;;;;;;;;;;;;;;8.49;89.75;94105.13;5140345;27;1014;-51
2023/01/10 13:32:18;;;;;;;;;;;;;;;8.46;90.24;94100.16;5158605;27;965;-51
2023/01/10 13:34:45;;;;;;;;;;;;;;;8.49;90.44;94089.97;5158561;27;1000;-51